createdAt,value
2022-10-28T00:00:29.546Z,3.77
2022-10-28T00:02:56.727Z,3.00
2022-10-28T00:05:23.959Z,3.03
2022-10-28T00:07:51.135Z,3.97
2022-10-28T00:10:17.886Z,4.33
2022-10-28T00:12:44.777Z,4.77
2022-10-28T00:15:11.445Z,4.63
2022-10-28T00:17:38.082Z,4.93
2022-10-28T00:20:05.169Z,4.70
2022-10-28T00:22:31.886Z,4.07
2022-10-28T00:24:58.461Z,4.70
2022-10-28T00:27:25.389Z,3.93
2022-10-28T00:29:52.064Z,4.10
2022-10-28T00:32:18.630Z,5.33
2022-10-28T00:34:45.471Z,4.37
2022-10-28T00:37:12.081Z,3.83
2022-10-28T00:39:38.738Z,5.47
2022-10-28T00:42:07.294Z,5.07
2022-10-28T00:44:40.382Z,5.93
2022-10-28T00:47:21.874Z,5.40
2022-10-28T00:49:51.186Z,5.60
2022-10-28T00:52:24.452Z,4.97
2022-10-28T00:54:53.059Z,4.77
2022-10-28T00:57:24.630Z,3.60
2022-10-28T00:59:53.391Z,4.07
2022-10-28T01:02:20.845Z,3.83
2022-10-28T01:04:48.177Z,4.50
2022-10-28T01:07:16.954Z,5.40
2022-10-28T01:09:44.143Z,5.47
2022-10-28T01:12:32.438Z,6.87
2022-10-28T01:15:29.431Z,5.60
2022-10-28T01:18:17.110Z,5.63
2022-10-28T01:21:11.518Z,5.27
2022-10-28T01:23:41.499Z,6.60
2022-10-28T01:26:45.226Z,5.13
2022-10-28T01:29:46.339Z,4.17
2022-10-28T01:32:15.768Z,4.90
2022-10-28T01:35:14.304Z,6.03
2022-10-28T01:38:02.680Z,6.63
2022-10-28T01:40:38.426Z,5.00
2022-10-28T01:43:15.968Z,5.47
2022-10-28T01:45:56.261Z,4.47
2022-10-28T01:48:30.948Z,5.53
2022-10-28T01:51:04.748Z,4.43
2022-10-28T01:53:35.971Z,4.00
2022-10-28T01:56:10.236Z,5.03
2022-10-28T01:58:39.010Z,3.70
2022-10-28T02:01:08.145Z,3.90
2022-10-28T02:03:35.028Z,4.17
2022-10-28T02:06:05.472Z,3.47
2022-10-28T02:08:55.144Z,4.23
2022-10-28T02:11:21.798Z,5.40
2022-10-28T02:14:13.443Z,4.23
2022-10-28T02:17:04.475Z,3.90
2022-10-28T02:19:49.726Z,3.80
2022-10-28T02:22:35.119Z,3.83
2022-10-28T02:25:11.928Z,4.70
2022-10-28T02:27:54.269Z,5.80
2022-10-28T02:30:25.617Z,5.18
2022-10-28T02:32:56.815Z,6.10
2022-10-28T02:35:49.086Z,6.90
2022-10-28T02:38:21.129Z,7.47
2022-10-28T02:40:53.865Z,6.60
2022-10-28T02:45:54.483Z,6.47
2022-10-28T02:48:43.446Z,4.20
2022-10-28T02:51:28.239Z,4.03
2022-10-28T02:54:16.152Z,4.70
2022-10-28T02:56:50.375Z,5.33
2022-10-28T02:59:17.259Z,6.60
2022-10-28T03:01:43.990Z,5.43
2022-10-28T03:04:10.869Z,4.40
2022-10-28T03:11:20.194Z,3.23
2022-10-28T03:14:46.700Z,3.87
2022-10-28T03:22:05.733Z,3.30
2022-10-28T03:25:32.112Z,3.23
2022-10-28T03:32:49.473Z,4.70
2022-10-28T03:36:04.233Z,7.17
2022-10-28T03:42:23.607Z,5.07
2022-10-28T03:44:50.496Z,5.40
2022-10-28T03:47:17.093Z,5.13
2022-10-28T03:49:43.928Z,4.00
2022-10-28T03:52:10.602Z,6.07
2022-10-28T03:54:37.354Z,4.03
2022-10-28T03:57:04.084Z,3.90
2022-10-28T03:59:30.747Z,4.53
2022-10-28T04:01:57.438Z,3.83
2022-10-28T04:04:28.342Z,4.10
2022-10-28T04:06:57.508Z,3.13
2022-10-28T04:09:24.341Z,4.30
2022-10-28T04:11:50.945Z,3.23
2022-10-28T04:14:17.934Z,3.50
2022-10-28T04:16:44.842Z,3.83
2022-10-28T04:19:11.463Z,4.27
2022-10-28T04:21:38.187Z,3.70
2022-10-28T04:24:05.427Z,3.87
2022-10-28T04:26:32.093Z,3.33
2022-10-28T04:28:58.777Z,3.47
2022-10-28T04:31:25.535Z,3.83
2022-10-28T04:33:52.178Z,3.77
2022-10-28T04:36:19.271Z,2.93
2022-10-28T04:38:46.218Z,1.97
2022-10-28T04:41:15.940Z,0.50
2022-10-28T04:43:42.607Z,0.40
2022-10-28T04:46:09.405Z,0.33
2022-10-28T04:48:36.518Z,0.30
2022-10-28T04:51:03.396Z,0.50
2022-10-28T04:53:30.177Z,0.30
2022-10-28T04:56:00.341Z,0.20
2022-10-28T04:58:27.018Z,0.30
2022-10-28T05:00:53.722Z,0.20
2022-10-28T05:03:20.585Z,0.20
2022-10-28T05:05:48.736Z,0.30
2022-10-28T05:08:15.435Z,0.30
2022-10-28T05:10:42.245Z,0.40
2022-10-28T05:13:08.934Z,0.30
2022-10-28T05:15:35.757Z,0.60
2022-10-28T05:18:02.553Z,0.40
2022-10-28T05:20:29.168Z,0.40
2022-10-28T05:22:57.287Z,0.57
2022-10-28T05:25:24.274Z,0.40
2022-10-28T05:27:51.091Z,0.30
2022-10-28T05:30:18.455Z,0.40
2022-10-28T05:32:46.741Z,0.30
2022-10-28T05:35:14.954Z,0.30
2022-10-28T05:37:41.762Z,0.40
2022-10-28T05:40:09.294Z,0.30
2022-10-28T05:42:45.362Z,0.20
2022-10-28T05:45:13.134Z,0.47
2022-10-28T05:47:47.284Z,0.30
2022-10-28T05:50:15.690Z,0.30
2022-10-28T05:52:49.711Z,0.33
2022-10-28T05:55:21.360Z,0.77
2022-10-28T05:57:49.997Z,0.60
2022-10-28T06:00:19.356Z,0.30
2022-10-28T06:02:46.370Z,0.30
2022-10-28T06:05:13.403Z,0.30
2022-10-28T06:07:40.507Z,0.20
2022-10-28T06:10:09.072Z,0.37
2022-10-28T06:12:34.765Z,0.30
2022-10-28T06:15:01.773Z,0.30
2022-10-28T06:17:29.693Z,0.30
2022-10-28T06:19:56.633Z,0.23
2022-10-28T06:22:23.301Z,0.40
2022-10-28T06:24:49.845Z,0.60
2022-10-28T06:27:16.683Z,0.30
2022-10-28T06:29:43.365Z,0.50
2022-10-28T06:32:10.136Z,0.37
2022-10-28T06:34:38.037Z,0.30
2022-10-28T06:37:09.287Z,0.30
2022-10-28T06:39:38.463Z,0.40
2022-10-28T06:42:05.393Z,0.30
2022-10-28T06:44:32.077Z,0.50
2022-10-28T06:47:00.276Z,0.30
2022-10-28T06:49:28.405Z,0.40
2022-10-28T06:51:55.190Z,0.40
2022-10-28T06:54:22.060Z,0.40
2022-10-28T06:56:48.826Z,0.50
2022-10-28T06:59:15.457Z,0.37
2022-10-28T07:01:42.392Z,0.50
2022-10-28T07:04:12.943Z,0.30
2022-10-28T07:06:40.587Z,0.40
2022-10-28T07:09:07.956Z,0.50
2022-10-28T07:11:34.706Z,0.40
2022-10-28T07:14:01.472Z,0.80
2022-10-28T07:16:28.166Z,0.60
2022-10-28T07:18:55.018Z,0.50
2022-10-28T07:21:24.540Z,0.80
2022-10-28T07:23:51.419Z,1.90
2022-10-28T07:26:18.103Z,0.50
2022-10-28T07:28:44.844Z,0.50
2022-10-28T07:33:43.260Z,0.43
2022-10-28T07:36:11.233Z,0.50
2022-10-28T07:38:38.250Z,0.60
2022-10-28T07:41:09.981Z,0.50
2022-10-28T07:43:38.293Z,0.60
2022-10-28T07:46:06.727Z,0.80
2022-10-28T07:48:34.701Z,0.50
2022-10-28T07:51:02.982Z,0.80
2022-10-28T07:53:29.868Z,0.50
2022-10-28T07:55:58.566Z,0.83
2022-10-28T07:58:25.496Z,0.60
2022-10-28T08:00:52.428Z,0.40
2022-10-28T08:03:19.223Z,0.70
2022-10-28T08:05:45.885Z,0.40
2022-10-28T08:08:12.702Z,0.40
2022-10-28T08:10:39.621Z,0.40
2022-10-28T08:13:07.192Z,0.60
2022-10-28T08:15:33.977Z,0.60
2022-10-28T08:18:00.723Z,0.40
2022-10-28T08:20:27.370Z,0.40
2022-10-28T08:22:54.409Z,0.60
2022-10-28T08:25:21.371Z,0.67
2022-10-28T08:27:48.047Z,0.60
2022-10-28T08:30:14.929Z,0.80
2022-10-28T08:32:41.652Z,0.60
2022-10-28T08:35:08.954Z,1.30
2022-10-28T08:37:35.927Z,0.60
2022-10-28T08:40:02.740Z,0.40
2022-10-28T08:42:40.250Z,0.53
2022-10-28T08:45:31.669Z,0.57
2022-10-28T08:48:15.541Z,0.50
2022-10-28T08:50:56.153Z,0.73
2022-10-28T08:53:35.480Z,0.50
2022-10-28T08:56:14.695Z,0.50
2022-10-28T08:58:44.910Z,0.50
2022-10-28T09:01:31.431Z,0.80
2022-10-28T09:04:02.001Z,0.70
2022-10-28T09:06:30.689Z,0.57
2022-10-28T09:08:59.144Z,0.60
2022-10-28T09:11:56.704Z,0.70
2022-10-28T09:14:35.562Z,0.60
2022-10-28T09:17:25.843Z,0.60
2022-10-28T09:19:58.740Z,0.60
2022-10-28T09:22:32.363Z,0.80
2022-10-28T09:25:07.039Z,0.73
2022-10-28T09:28:01.189Z,0.63
2022-10-28T09:30:37.630Z,0.67
2022-10-28T09:33:25.593Z,0.80
2022-10-28T09:35:53.288Z,0.87
2022-10-28T09:38:24.956Z,0.70
2022-10-28T09:40:58.757Z,1.23
2022-10-28T09:43:30.516Z,0.83
2022-10-28T09:46:03.968Z,0.83
2022-10-28T09:48:51.940Z,1.77
2022-10-28T09:51:47.643Z,2.20
2022-10-28T09:54:15.876Z,1.57
2022-10-28T09:56:42.653Z,0.90
2022-10-28T09:59:15.130Z,1.00
2022-10-28T10:01:43.973Z,0.70
2022-10-28T10:04:25.334Z,1.30
2022-10-28T10:07:08.703Z,1.50
2022-10-28T10:09:37.402Z,1.13
2022-10-28T10:12:10.368Z,1.30
2022-10-28T10:14:42.999Z,1.00
2022-10-28T10:17:17.133Z,0.82
2022-10-28T10:20:18.357Z,0.90
2022-10-28T10:22:48.331Z,1.90
2022-10-28T10:25:18.208Z,0.80
2022-10-28T10:28:16.950Z,1.30
2022-10-28T10:30:52.645Z,1.20
2022-10-28T10:33:27.007Z,1.10
2022-10-28T10:36:00.005Z,1.10
2022-10-28T10:38:27.964Z,1.20
2022-10-28T10:40:55.494Z,1.70
2022-10-28T10:43:29.991Z,0.97
2022-10-28T10:46:05.702Z,1.03
2022-10-28T10:48:36.736Z,0.90
2022-10-28T10:51:27.646Z,1.37
2022-10-28T10:54:01.245Z,1.33
2022-10-28T10:56:31.234Z,1.10
2022-10-28T10:59:02.529Z,1.10
2022-10-28T11:01:36.060Z,1.43
2022-10-28T11:04:06.515Z,1.63
2022-10-28T11:06:38.179Z,1.30
2022-10-28T11:09:19.064Z,1.17
2022-10-28T11:11:45.968Z,1.00
2022-10-28T11:14:13.487Z,1.30
2022-10-28T11:16:50.367Z,1.23
2022-10-28T11:19:26.684Z,1.47
2022-10-28T11:22:25.258Z,1.40
2022-10-28T11:25:37.573Z,2.60
2022-10-28T11:28:53.592Z,1.90
2022-10-28T11:32:01.225Z,1.47
2022-10-28T11:34:54.301Z,1.87
2022-10-28T11:44:47.464Z,1.73
2022-10-28T11:47:48.917Z,1.60
2022-10-28T11:50:27.816Z,1.50
2022-10-28T11:53:52.367Z,1.57
2022-10-28T11:57:18.960Z,2.13
2022-10-28T12:00:44.400Z,2.13
2022-10-28T12:03:34.249Z,1.60
2022-10-28T12:06:36.038Z,1.63
2022-10-28T12:09:54.064Z,1.90
2022-10-28T12:13:31.276Z,2.07
2022-10-28T12:16:06.814Z,2.00
2022-10-28T12:18:43.574Z,1.57
2022-10-28T12:21:55.061Z,3.23
2022-10-28T12:24:24.518Z,1.43
2022-10-28T12:26:58.332Z,1.40
2022-10-28T12:29:30.293Z,1.80
2022-10-28T12:32:06.869Z,2.08
2022-10-28T12:34:39.327Z,2.23
2022-10-28T12:37:31.125Z,1.88
2022-10-28T12:40:05.236Z,2.27
2022-10-28T12:42:44.063Z,2.10
2022-10-28T12:45:16.417Z,1.90
2022-10-28T12:47:59.398Z,2.72
2022-10-28T12:50:42.753Z,1.70
2022-10-28T12:53:36.134Z,1.80
2022-10-28T12:56:07.951Z,2.77
2022-10-28T12:59:12.095Z,3.15
2022-10-28T13:01:39.703Z,2.53
2022-10-28T13:04:06.963Z,2.43
2022-10-28T13:07:09.175Z,2.20
2022-10-28T13:10:07.313Z,1.93
2022-10-28T13:12:45.130Z,2.27
2022-10-28T13:15:32.869Z,2.60
2022-10-28T13:18:36.813Z,1.83
2022-10-28T13:21:27.014Z,1.50
2022-10-28T13:24:14.619Z,1.80
2022-10-28T13:26:44.076Z,2.23
2022-10-28T13:29:24.587Z,2.20
2022-10-28T13:31:52.450Z,2.20
2022-10-28T13:34:22.296Z,2.10
2022-10-28T13:36:58.667Z,3.37
2022-10-28T13:39:38.830Z,1.70
2022-10-28T13:42:19.796Z,1.73
2022-10-28T13:44:58.911Z,2.10
2022-10-28T13:47:36.607Z,2.03
2022-10-28T13:50:06.149Z,2.80
2022-10-28T13:52:39.672Z,2.57
2022-10-28T13:55:24.493Z,2.20
2022-10-28T13:58:05.374Z,1.80
2022-10-28T14:00:32.048Z,2.20
2022-10-28T14:03:02.196Z,2.67
2022-10-28T14:05:38.617Z,2.27
2022-10-28T14:08:08.190Z,2.20
2022-10-28T14:10:39.693Z,2.00
2022-10-28T14:13:22.542Z,2.00
2022-10-28T14:21:06.476Z,3.07
2022-10-28T14:23:33.042Z,2.33
2022-10-28T14:26:05.163Z,2.60
2022-10-28T14:28:32.189Z,2.17
2022-10-28T14:31:14.695Z,3.03
2022-10-28T14:33:44.692Z,2.17
2022-10-28T14:36:17.256Z,2.70
2022-10-28T14:39:21.355Z,2.42
2022-10-28T14:41:59.485Z,2.37
2022-10-28T14:44:38.180Z,2.83
2022-10-28T14:47:13.597Z,2.63
2022-10-28T14:49:42.251Z,2.63
2022-10-28T14:52:18.144Z,2.33
2022-10-28T14:54:52.459Z,2.37
2022-10-28T14:57:22.848Z,3.00
2022-10-28T14:59:51.788Z,2.40
2022-10-28T15:02:24.756Z,2.60
2022-10-28T15:05:20.949Z,2.53
2022-10-28T15:07:48.658Z,2.20
2022-10-28T15:10:25.733Z,2.73
2022-10-28T15:12:55.685Z,2.50
2022-10-28T15:15:30.602Z,2.27
2022-10-28T15:17:58.729Z,3.17
2022-10-28T15:20:32.689Z,2.63
2022-10-28T15:23:21.028Z,2.83
2022-10-28T15:26:05.638Z,3.00
2022-10-28T15:28:32.521Z,2.43
2022-10-28T15:30:59.166Z,2.20
2022-10-28T15:33:37.470Z,4.07
2022-10-28T15:36:24.212Z,2.47
2022-10-28T15:38:55.978Z,2.40
2022-10-28T15:41:38.690Z,2.70
2022-10-28T15:44:05.791Z,3.63
2022-10-28T15:46:33.855Z,2.50
2022-10-28T15:49:02.055Z,2.60
2022-10-28T15:51:29.141Z,4.20
2022-10-28T15:54:11.001Z,2.57
2022-10-28T15:56:57.813Z,2.57
2022-10-28T15:59:26.026Z,2.83
2022-10-28T16:01:56.278Z,2.60
2022-10-28T16:04:24.200Z,3.67
2022-10-28T16:06:53.950Z,3.60
2022-10-28T16:09:32.393Z,2.77
2022-10-28T16:12:03.228Z,2.90
2022-10-28T16:14:40.847Z,2.43
2022-10-28T16:17:13.114Z,3.00
2022-10-28T16:19:51.470Z,2.88
2022-10-28T16:22:19.393Z,3.17
2022-10-28T16:24:46.762Z,2.30
2022-10-28T16:27:17.436Z,2.87
2022-10-28T16:29:44.657Z,3.37
2022-10-28T16:32:13.024Z,2.70
2022-10-28T16:34:40.492Z,3.63
2022-10-28T16:37:24.234Z,3.03
2022-10-28T16:39:51.056Z,2.93
2022-10-28T16:42:19.536Z,3.03
2022-10-28T16:44:46.530Z,2.37
2022-10-28T16:47:15.670Z,2.37
2022-10-28T16:49:42.787Z,2.60
2022-10-28T16:52:22.667Z,2.40
2022-10-28T16:54:51.220Z,2.97
2022-10-28T16:57:19.582Z,2.97
2022-10-28T16:59:46.759Z,3.27
2022-10-28T17:02:35.564Z,2.77
2022-10-28T17:05:05.224Z,2.57
2022-10-28T17:07:31.844Z,3.10
2022-10-28T17:09:58.715Z,3.00
2022-10-28T17:12:27.617Z,2.57
2022-10-28T17:14:54.394Z,3.67
2022-10-28T17:17:21.113Z,2.90
2022-10-28T17:19:48.045Z,2.70
2022-10-28T17:22:14.751Z,3.23
2022-10-28T17:24:41.551Z,3.97
2022-10-28T17:27:08.828Z,3.03
2022-10-28T17:29:35.611Z,3.80
2022-10-28T17:32:02.549Z,2.50
2022-10-28T17:34:29.638Z,2.67
2022-10-28T17:36:56.416Z,3.00
2022-10-28T17:39:26.136Z,2.90
2022-10-28T17:41:53.954Z,2.60
2022-10-28T17:44:20.736Z,2.33
2022-10-28T17:46:51.575Z,2.40
2022-10-28T17:49:18.779Z,3.40
2022-10-28T17:51:45.374Z,2.50
2022-10-28T17:54:12.207Z,4.20
2022-10-28T17:56:42.337Z,3.63
2022-10-28T17:59:09.434Z,2.07
2022-10-28T18:01:36.725Z,2.50
2022-10-28T18:04:04.733Z,2.50
2022-10-28T18:06:31.732Z,2.80
2022-10-28T18:08:58.681Z,2.60
2022-10-28T18:11:27.662Z,2.73
2022-10-28T18:13:56.201Z,2.63
2022-10-28T18:16:25.434Z,2.70
2022-10-28T18:18:53.406Z,3.00
2022-10-28T18:21:20.653Z,2.57
2022-10-28T18:23:54.899Z,2.53
2022-10-28T18:26:21.881Z,3.97
2022-10-28T18:28:49.184Z,3.50
2022-10-28T18:31:18.478Z,3.77
2022-10-28T18:33:46.412Z,6.37
2022-10-28T18:36:16.162Z,4.63
2022-10-28T18:38:42.997Z,9.07
2022-10-28T18:41:20.937Z,3.50
2022-10-28T18:43:48.341Z,3.43
2022-10-28T18:46:15.003Z,3.33
2022-10-28T18:48:41.930Z,3.37
2022-10-28T18:51:12.238Z,4.90
2022-10-28T18:53:41.753Z,4.07
2022-10-28T18:56:11.493Z,3.60
2022-10-28T18:58:38.558Z,1.90
2022-10-28T19:01:13.867Z,4.40
2022-10-28T19:03:41.214Z,3.63
2022-10-28T19:06:11.033Z,5.47
2022-10-28T19:08:38.551Z,3.13
2022-10-28T19:11:07.078Z,3.40
2022-10-28T19:13:39.046Z,3.63
2022-10-28T19:16:06.436Z,4.45
2022-10-28T19:18:35.645Z,5.73
2022-10-28T19:21:08.532Z,2.93
2022-10-28T19:23:36.321Z,4.47
2022-10-28T19:26:05.059Z,3.80
2022-10-28T19:28:40.175Z,3.37
2022-10-28T19:31:13.019Z,3.10
2022-10-28T19:33:40.062Z,3.97
2022-10-28T19:36:18.801Z,4.83
2022-10-28T19:38:47.488Z,15.27
2022-10-28T19:41:20.313Z,12.83
2022-10-28T19:43:47.539Z,5.20
2022-10-28T19:46:19.523Z,5.53
2022-10-28T19:48:49.213Z,3.92
2022-10-28T19:51:19.101Z,5.83
2022-10-28T19:53:54.753Z,3.20
2022-10-28T19:56:22.342Z,3.80
2022-10-28T19:58:53.393Z,8.60
2022-10-28T20:01:22.117Z,3.50
2022-10-28T20:03:53.277Z,2.80
2022-10-28T20:06:25.989Z,2.23
2022-10-28T20:11:28.071Z,3.73
2022-10-28T20:13:56.871Z,2.93
2022-10-28T20:16:24.608Z,2.77
2022-10-28T20:18:51.564Z,3.80
2022-10-28T20:21:20.375Z,4.60
2022-10-28T20:23:54.147Z,3.10
2022-10-28T20:26:23.432Z,4.10
2022-10-28T20:28:50.678Z,4.50
2022-10-28T20:31:21.317Z,3.87
2022-10-28T20:33:58.960Z,3.43
2022-10-28T20:36:28.518Z,3.50
2022-10-28T20:39:00.487Z,3.77
2022-10-28T20:41:30.335Z,6.88
2022-10-28T20:43:57.537Z,7.73
2022-10-28T20:46:25.607Z,2.40
2022-10-28T20:48:54.579Z,3.10
2022-10-28T20:51:22.406Z,2.50
2022-10-28T20:53:49.285Z,3.50
2022-10-28T20:56:26.786Z,2.80
2022-10-28T20:58:54.956Z,2.47
2022-10-28T21:01:25.629Z,2.40
2022-10-28T21:03:58.354Z,2.40
2022-10-28T21:06:25.769Z,2.88
2022-10-28T21:08:53.714Z,3.03
2022-10-28T21:11:23.022Z,2.97
2022-10-28T21:13:54.703Z,3.50
2022-10-28T21:16:22.202Z,6.77
2022-10-28T21:18:49.720Z,9.77
2022-10-28T21:21:17.146Z,18.20
2022-10-28T21:23:43.836Z,17.70
2022-10-28T21:26:12.206Z,13.47
2022-10-28T21:28:41.545Z,18.90
2022-10-28T21:31:15.563Z,14.93
2022-10-28T21:33:42.961Z,5.27
2022-10-28T21:36:15.839Z,10.97
2022-10-28T21:41:18.194Z,4.50
2022-10-28T21:43:49.627Z,4.33
2022-10-28T21:46:17.990Z,5.70
2022-10-28T21:48:45.232Z,11.03
2022-10-28T21:51:15.013Z,11.90
2022-10-28T21:53:43.706Z,5.23
2022-10-28T21:56:16.721Z,7.53
2022-10-28T21:58:45.304Z,4.80
2022-10-28T22:01:14.454Z,3.67
2022-10-28T22:03:41.338Z,6.00
2022-10-28T22:06:08.734Z,3.77
2022-10-28T22:08:35.456Z,2.60
2022-10-28T22:11:06.740Z,4.23
2022-10-28T22:13:34.777Z,3.80
2022-10-28T22:16:12.620Z,4.00
2022-10-28T22:18:40.320Z,3.40
2022-10-28T22:21:08.914Z,3.87
2022-10-28T22:23:37.029Z,3.33
2022-10-28T22:26:05.829Z,3.47
2022-10-28T22:28:33.230Z,2.67
2022-10-28T22:31:01.233Z,3.17
2022-10-28T22:33:28.660Z,3.43
2022-10-28T22:36:10.413Z,2.30
2022-10-28T22:38:37.660Z,2.60
2022-10-28T22:41:12.381Z,2.50
2022-10-28T22:43:40.140Z,2.43
2022-10-28T22:46:07.441Z,2.57
2022-10-28T22:48:34.148Z,2.70
2022-10-28T22:51:01.542Z,4.43
2022-10-28T22:53:28.667Z,3.73
2022-10-28T22:55:56.414Z,3.73
2022-10-28T22:58:24.770Z,4.30
2022-10-28T23:00:51.653Z,4.83
2022-10-28T23:03:18.745Z,4.37
2022-10-28T23:05:46.118Z,5.17
2022-10-28T23:08:16.416Z,4.03
2022-10-28T23:10:43.083Z,3.27
2022-10-28T23:13:13.793Z,3.80
2022-10-28T23:15:40.473Z,2.80
2022-10-28T23:18:07.220Z,3.33
2022-10-28T23:20:35.343Z,3.57
2022-10-28T23:23:02.012Z,3.97
2022-10-28T23:25:28.623Z,4.73
2022-10-28T23:27:55.777Z,3.03
2022-10-28T23:30:22.690Z,3.20
2022-10-28T23:32:49.344Z,3.63
2022-10-28T23:35:16.319Z,3.77
2022-10-28T23:37:43.379Z,4.17
2022-10-28T23:42:42.308Z,3.88
2022-10-28T23:45:09.802Z,4.67
2022-10-28T23:47:36.568Z,4.07
2022-10-28T23:50:04.059Z,4.67
2022-10-28T23:52:30.664Z,4.00
2022-10-28T23:54:57.515Z,4.00
2022-10-28T23:57:24.669Z,3.40
2022-10-28T23:59:51.397Z,3.87
